sensor_id;sensor_type;location;lat;lon;timestamp;pressure;altitude;pressure_sealevel;temperature;humidity
10832;BME280;5469;48.574;8.768;2022-10-22T00:02:03;94699.69;;;12.79;100.00
10832;BME280;5469;48.574;8.768;2022-10-22T00:04:41;94705.38;;;12.72;100.00
10832;BME280;5469;48.574;8.768;2022-10-22T00:07:17;94699.91;;;12.82;100.00
10832;BME280;5469;48.574;8.768;2022-10-22T00:09:52;94716.06;;;12.86;100.00
10832;BME280;5469;48.574;8.768;2022-10-22T00:12:28;94721.16;;;13.01;100.00
10832;BME280;5469;48.574;8.768;2022-10-22T00:15:03;94733.47;;;12.97;100.00
10832;BME280;5469;48.574;8.768;2022-10-22T00:17:39;94739.78;;;13.01;100.00
10832;BME280;5469;48.574;8.768;2022-10-22T00:20:15;94744.47;;;13.28;99.61
10832;BME280;5469;48.574;8.768;2022-10-22T00:22:50;94743.78;;;13.18;100.00
10832;BME280;5469;48.574;8.768;2022-10-22T00:25:25;94744.31;;;13.52;97.71
10832;BME280;5469;48.574;8.768;2022-10-22T00:28:00;94736.06;;;13.68;95.97
10832;BME280;5469;48.574;8.768;2022-10-22T00:30:36;94746.31;;;13.61;96.76
10832;BME280;5469;48.574;8.768;2022-10-22T00:33:11;94736.22;;;13.44;97.96
10832;BME280;5469;48.574;8.768;2022-10-22T00:35:48;94740.34;;;13.36;99.69
10832;BME280;5469;48.574;8.768;2022-10-22T00:38:24;94739.25;;;13.70;96.33
10832;BME280;5469;48.574;8.768;2022-10-22T00:40:59;94724.66;;;13.81;94.38
10832;BME280;5469;48.574;8.768;2022-10-22T00:43:51;94710.03;;;13.79;94.91
10832;BME280;5469;48.574;8.768;2022-10-22T00:46:27;94713.03;;;13.91;92.89
10832;BME280;5469;48.574;8.768;2022-10-22T00:49:05;94719.72;;;13.88;93.42
10832;BME280;5469;48.574;8.768;2022-10-22T00:51:42;94717.44;;;13.95;92.67
10832;BME280;5469;48.574;8.768;2022-10-22T00:54:18;94722.38;;;13.88;93.73
10832;BME280;5469;48.574;8.768;2022-10-22T00:56:54;94719.13;;;13.91;93.62
10832;BME280;5469;48.574;8.768;2022-10-22T00:59:30;94710.81;;;13.79;93.65
10832;BME280;5469;48.574;8.768;2022-10-22T01:02:07;94712.63;;;13.84;93.12
10832;BME280;5469;48.574;8.768;2022-10-22T01:04:43;94712.03;;;13.73;94.53
10832;BME280;5469;48.574;8.768;2022-10-22T01:07:22;94705.19;;;13.67;94.01
10832;BME280;5469;48.574;8.768;2022-10-22T01:10:05;94699.31;;;13.37;97.97
10832;BME280;5469;48.574;8.768;2022-10-22T01:12:47;94683.16;;;13.15;100.00
10832;BME280;5469;48.574;8.768;2022-10-22T01:15:28;94696.63;;;13.04;100.00
10832;BME280;5469;48.574;8.768;2022-10-22T01:18:09;94687.00;;;13.08;100.00
10832;BME280;5469;48.574;8.768;2022-10-22T01:20:53;94687.09;;;13.03;100.00
10832;BME280;5469;48.574;8.768;2022-10-22T01:24:10;94685.59;;;12.97;100.00
10832;BME280;5469;48.574;8.768;2022-10-22T01:27:02;94689.22;;;13.01;100.00
10832;BME280;5469;48.574;8.768;2022-10-22T01:29:41;94676.69;;;12.88;100.00
10832;BME280;5469;48.574;8.768;2022-10-22T01:32:19;94686.72;;;12.91;100.00
10832;BME280;5469;48.574;8.768;2022-10-22T01:34:59;94699.38;;;12.99;100.00
10832;BME280;5469;48.574;8.768;2022-10-22T01:37:39;94700.69;;;12.83;100.00
10832;BME280;5469;48.574;8.768;2022-10-22T01:40:16;94701.03;;;12.95;100.00
10832;BME280;5469;48.574;8.768;2022-10-22T01:42:56;94717.09;;;12.90;100.00
10832;BME280;5469;48.574;8.768;2022-10-22T01:45:36;94717.50;;;12.97;100.00
10832;BME280;5469;48.574;8.768;2022-10-22T01:48:29;94712.19;;;12.97;100.00
10832;BME280;5469;48.574;8.768;2022-10-22T01:51:27;94706.66;;;12.94;100.00
10832;BME280;5469;48.574;8.768;2022-10-22T01:54:08;94704.06;;;13.07;100.00
10832;BME280;5469;48.574;8.768;2022-10-22T01:56:55;94728.72;;;12.94;100.00
10832;BME280;5469;48.574;8.768;2022-10-22T01:59:37;94726.16;;;13.22;100.00
10832;BME280;5469;48.574;8.768;2022-10-22T02:02:24;94723.50;;;13.22;100.00
10832;BME280;5469;48.574;8.768;2022-10-22T02:05:06;94732.09;;;13.00;100.00
10832;BME280;5469;48.574;8.768;2022-10-22T02:07:44;94725.06;;;13.23;100.00
10832;BME280;5469;48.574;8.768;2022-10-22T02:10:22;94712.84;;;13.22;100.00
10832;BME280;5469;48.574;8.768;2022-10-22T02:13:00;94725.06;;;13.23;100.00
10832;BME280;5469;48.574;8.768;2022-10-22T02:15:37;94721.59;;;13.08;100.00
10832;BME280;5469;48.574;8.768;2022-10-22T02:18:15;94731.44;;;13.27;100.00
10832;BME280;5469;48.574;8.768;2022-10-22T02:20:53;94712.22;;;13.11;99.50
10832;BME280;5469;48.574;8.768;2022-10-22T02:23:29;94718.69;;;13.24;99.06
10832;BME280;5469;48.574;8.768;2022-10-22T02:26:08;94718.53;;;13.15;100.00
10832;BME280;5469;48.574;8.768;2022-10-22T02:28:49;94725.81;;;13.09;98.79
10832;BME280;5469;48.574;8.768;2022-10-22T02:31:29;94727.41;;;13.10;100.00
10832;BME280;5469;48.574;8.768;2022-10-22T02:34:09;94732.34;;;13.17;99.15
10832;BME280;5469;48.574;8.768;2022-10-22T02:36:47;94728.56;;;13.04;100.00
10832;BME280;5469;48.574;8.768;2022-10-22T02:39:24;94732.75;;;13.10;100.00
10832;BME280;5469;48.574;8.768;2022-10-22T02:42:01;94734.50;;;13.15;99.46
10832;BME280;5469;48.574;8.768;2022-10-22T02:44:36;94744.59;;;13.37;97.63
10832;BME280;5469;48.574;8.768;2022-10-22T02:47:11;94730.00;;;13.16;98.41
10832;BME280;5469;48.574;8.768;2022-10-22T02:49:48;94726.84;;;13.14;98.19
10832;BME280;5469;48.574;8.768;2022-10-22T02:52:23;94720.25;;;13.25;97.36
10832;BME280;5469;48.574;8.768;2022-10-22T02:54:57;94728.00;;;13.07;98.89
10832;BME280;5469;48.574;8.768;2022-10-22T02:57:33;94717.34;;;13.07;99.90
10832;BME280;5469;48.574;8.768;2022-10-22T03:00:11;94706.28;;;13.00;99.84
10832;BME280;5469;48.574;8.768;2022-10-22T03:02:46;94698.22;;;13.05;99.98
10832;BME280;5469;48.574;8.768;2022-10-22T03:05:23;94698.00;;;13.02;99.71
10832;BME280;5469;48.574;8.768;2022-10-22T03:07:58;94697.06;;;13.11;98.40
10832;BME280;5469;48.574;8.768;2022-10-22T03:10:33;94683.63;;;13.03;98.28
10832;BME280;5469;48.574;8.768;2022-10-22T03:13:08;94698.72;;;13.07;96.75
10832;BME280;5469;48.574;8.768;2022-10-22T03:15:43;94691.31;;;13.04;96.73
10832;BME280;5469;48.574;8.768;2022-10-22T03:18:18;94688.19;;;13.02;97.09
10832;BME280;5469;48.574;8.768;2022-10-22T03:21:03;94682.50;;;13.23;95.90
10832;BME280;5469;48.574;8.768;2022-10-22T03:23:41;94685.31;;;13.12;95.96
10832;BME280;5469;48.574;8.768;2022-10-22T03:26:16;94684.75;;;13.16;95.77
10832;BME280;5469;48.574;8.768;2022-10-22T03:28:52;94691.16;;;13.15;94.97
10832;BME280;5469;48.574;8.768;2022-10-22T03:31:27;94701.50;;;13.16;95.22
10832;BME280;5469;48.574;8.768;2022-10-22T03:34:02;94713.31;;;13.29;93.20
10832;BME280;5469;48.574;8.768;2022-10-22T03:36:40;94732.16;;;13.14;95.64
10832;BME280;5469;48.574;8.768;2022-10-22T03:39:17;94744.13;;;12.97;97.42
10832;BME280;5469;48.574;8.768;2022-10-22T03:41:54;94730.19;;;13.19;96.18
10832;BME280;5469;48.574;8.768;2022-10-22T03:44:30;94725.94;;;13.37;95.45
10832;BME280;5469;48.574;8.768;2022-10-22T03:47:06;94721.94;;;13.21;95.79
10832;BME280;5469;48.574;8.768;2022-10-22T03:49:41;94717.13;;;13.04;97.11
10832;BME280;5469;48.574;8.768;2022-10-22T03:52:18;94717.88;;;13.42;94.37
10832;BME280;5469;48.574;8.768;2022-10-22T03:54:53;94709.97;;;13.37;95.49
10832;BME280;5469;48.574;8.768;2022-10-22T03:57:28;94710.56;;;13.34;94.20
10832;BME280;5469;48.574;8.768;2022-10-22T04:00:05;94707.91;;;13.15;96.47
10832;BME280;5469;48.574;8.768;2022-10-22T04:02:40;94717.16;;;13.18;95.90
10832;BME280;5469;48.574;8.768;2022-10-22T04:05:16;94728.16;;;12.97;100.00
10832;BME280;5469;48.574;8.768;2022-10-22T04:07:53;94730.38;;;12.90;99.63
10832;BME280;5469;48.574;8.768;2022-10-22T04:10:29;94741.69;;;12.82;100.00
10832;BME280;5469;48.574;8.768;2022-10-22T04:13:04;94742.47;;;12.82;100.00
10832;BME280;5469;48.574;8.768;2022-10-22T04:15:38;94737.56;;;13.08;99.98
10832;BME280;5469;48.574;8.768;2022-10-22T04:18:13;94729.41;;;13.19;97.86
10832;BME280;5469;48.574;8.768;2022-10-22T04:20:50;94729.91;;;13.21;97.88
10832;BME280;5469;48.574;8.768;2022-10-22T04:23:27;94745.97;;;13.16;99.15
10832;BME280;5469;48.574;8.768;2022-10-22T04:26:04;94743.72;;;13.04;99.79
10832;BME280;5469;48.574;8.768;2022-10-22T04:28:39;94745.84;;;12.88;100.00
10832;BME280;5469;48.574;8.768;2022-10-22T04:31:16;94741.88;;;12.85;100.00
10832;BME280;5469;48.574;8.768;2022-10-22T04:33:54;94748.41;;;12.93;100.00
10832;BME280;5469;48.574;8.768;2022-10-22T04:36:29;94747.84;;;12.96;99.89
10832;BME280;5469;48.574;8.768;2022-10-22T04:39:06;94751.00;;;12.98;100.00
10832;BME280;5469;48.574;8.768;2022-10-22T04:41:41;94750.41;;;13.01;99.33
10832;BME280;5469;48.574;8.768;2022-10-22T04:44:16;94744.38;;;13.15;97.75
10832;BME280;5469;48.574;8.768;2022-10-22T04:46:51;94744.38;;;13.15;98.42
10832;BME280;5469;48.574;8.768;2022-10-22T04:49:28;94746.44;;;13.18;97.53
10832;BME280;5469;48.574;8.768;2022-10-22T04:52:03;94746.50;;;13.12;97.87
10832;BME280;5469;48.574;8.768;2022-10-22T04:54:39;94742.22;;;13.17;96.61
10832;BME280;5469;48.574;8.768;2022-10-22T04:57:14;94750.50;;;13.34;96.12
10832;BME280;5469;48.574;8.768;2022-10-22T04:59:49;94744.06;;;13.35;95.98
10832;BME280;5469;48.574;8.768;2022-10-22T05:02:24;94755.22;;;13.37;94.67
10832;BME280;5469;48.574;8.768;2022-10-22T05:04:59;94752.41;;;13.09;98.05
10832;BME280;5469;48.574;8.768;2022-10-22T05:07:34;94750.56;;;13.10;97.95
10832;BME280;5469;48.574;8.768;2022-10-22T05:10:11;94747.91;;;13.10;97.57
10832;BME280;5469;48.574;8.768;2022-10-22T05:12:46;94753.13;;;13.15;97.00
10832;BME280;5469;48.574;8.768;2022-10-22T05:15:21;94751.13;;;13.07;97.44
10832;BME280;5469;48.574;8.768;2022-10-22T05:17:57;94754.59;;;13.07;97.73
10832;BME280;5469;48.574;8.768;2022-10-22T05:20:31;94765.66;;;13.15;96.25
10832;BME280;5469;48.574;8.768;2022-10-22T05:23:07;94763.06;;;13.09;96.36
10832;BME280;5469;48.574;8.768;2022-10-22T05:25:44;94760.00;;;13.02;95.37
10832;BME280;5469;48.574;8.768;2022-10-22T05:28:18;94765.41;;;12.97;96.56
10832;BME280;5469;48.574;8.768;2022-10-22T05:30:55;94772.56;;;13.16;94.99
10832;BME280;5469;48.574;8.768;2022-10-22T05:33:32;94780.63;;;13.10;94.95
10832;BME280;5469;48.574;8.768;2022-10-22T05:36:10;94786.16;;;12.95;95.04
10832;BME280;5469;48.574;8.768;2022-10-22T05:38:46;94775.47;;;13.00;95.36
10832;BME280;5469;48.574;8.768;2022-10-22T05:41:24;94780.91;;;12.90;96.08
10832;BME280;5469;48.574;8.768;2022-10-22T05:44:01;94777.44;;;12.71;96.90
10832;BME280;5469;48.574;8.768;2022-10-22T05:46:37;94776.19;;;12.87;95.96
10832;BME280;5469;48.574;8.768;2022-10-22T05:49:14;94786.25;;;12.71;96.63
10832;BME280;5469;48.574;8.768;2022-10-22T05:51:50;94788.66;;;12.67;97.79
10832;BME280;5469;48.574;8.768;2022-10-22T05:54:25;94799.28;;;12.67;98.34
10832;BME280;5469;48.574;8.768;2022-10-22T05:57:01;94802.91;;;12.77;98.59
10832;BME280;5469;48.574;8.768;2022-10-22T05:59:37;94810.38;;;12.75;98.08
10832;BME280;5469;48.574;8.768;2022-10-22T06:02:12;94807.13;;;12.78;98.65
10832;BME280;5469;48.574;8.768;2022-10-22T06:04:50;94806.50;;;12.86;97.96
10832;BME280;5469;48.574;8.768;2022-10-22T06:07:25;94811.44;;;12.74;98.43
10832;BME280;5469;48.574;8.768;2022-10-22T06:10:00;94817.19;;;12.62;100.00
10832;BME280;5469;48.574;8.768;2022-10-22T06:12:36;94807.41;;;12.76;99.58
10832;BME280;5469;48.574;8.768;2022-10-22T06:15:13;94820.88;;;12.85;98.47
10832;BME280;5469;48.574;8.768;2022-10-22T06:17:48;94826.22;;;12.85;99.03
10832;BME280;5469;48.574;8.768;2022-10-22T06:20:23;94826.84;;;12.77;99.93
10832;BME280;5469;48.574;8.768;2022-10-22T06:22:59;94816.75;;;12.74;100.00
10832;BME280;5469;48.574;8.768;2022-10-22T06:25:35;94827.03;;;12.61;100.00
10832;BME280;5469;48.574;8.768;2022-10-22T06:28:12;94828.03;;;12.65;100.00
10832;BME280;5469;48.574;8.768;2022-10-22T06:30:47;94831.56;;;12.61;100.00
10832;BME280;5469;48.574;8.768;2022-10-22T06:33:22;94837.53;;;12.72;100.00
10832;BME280;5469;48.574;8.768;2022-10-22T06:36:03;94841.97;;;12.57;100.00
10832;BME280;5469;48.574;8.768;2022-10-22T06:38:40;94851.41;;;12.68;100.00
10832;BME280;5469;48.574;8.768;2022-10-22T06:41:15;94851.53;;;12.58;100.00
10832;BME280;5469;48.574;8.768;2022-10-22T06:43:52;94870.16;;;12.58;100.00
10832;BME280;5469;48.574;8.768;2022-10-22T06:46:27;94874.19;;;12.75;100.00
10832;BME280;5469;48.574;8.768;2022-10-22T06:49:04;94878.38;;;12.81;100.00
10832;BME280;5469;48.574;8.768;2022-10-22T06:51:39;94875.00;;;12.75;100.00
10832;BME280;5469;48.574;8.768;2022-10-22T06:54:14;94876.03;;;12.98;100.00
10832;BME280;5469;48.574;8.768;2022-10-22T06:56:49;94880.72;;;13.06;100.00
10832;BME280;5469;48.574;8.768;2022-10-22T06:59:26;94880.72;;;13.06;100.00
10832;BME280;5469;48.574;8.768;2022-10-22T07:02:01;94893.50;;;13.04;100.00
10832;BME280;5469;48.574;8.768;2022-10-22T07:04:37;94887.63;;;13.07;100.00
10832;BME280;5469;48.574;8.768;2022-10-22T07:07:13;94899.28;;;13.11;100.00
10832;BME280;5469;48.574;8.768;2022-10-22T07:09:49;94898.53;;;12.87;100.00
10832;BME280;5469;48.574;8.768;2022-10-22T07:12:24;94895.53;;;13.12;100.00
10832;BME280;5469;48.574;8.768;2022-10-22T07:15:00;94895.47;;;13.18;100.00
10832;BME280;5469;48.574;8.768;2022-10-22T07:17:35;94886.81;;;13.07;100.00
10832;BME280;5469;48.574;8.768;2022-10-22T07:20:12;94890.59;;;13.25;100.00
10832;BME280;5469;48.574;8.768;2022-10-22T07:22:47;94900.72;;;13.23;100.00
10832;BME280;5469;48.574;8.768;2022-10-22T07:25:22;94904.47;;;13.22;100.00
10832;BME280;5469;48.574;8.768;2022-10-22T07:27:57;94908.34;;;13.10;100.00
10832;BME280;5469;48.574;8.768;2022-10-22T07:30:35;94906.63;;;13.20;100.00
10832;BME280;5469;48.574;8.768;2022-10-22T07:33:11;94901.84;;;13.41;100.00
10832;BME280;5469;48.574;8.768;2022-10-22T07:35:46;94914.72;;;13.52;100.00
10832;BME280;5469;48.574;8.768;2022-10-22T07:38:21;94903.50;;;13.55;100.00
10832;BME280;5469;48.574;8.768;2022-10-22T07:40:57;94910.00;;;13.49;100.00
10832;BME280;5469;48.574;8.768;2022-10-22T07:43:33;94912.00;;;13.58;100.00
10832;BME280;5469;48.574;8.768;2022-10-22T07:46:09;94914.59;;;13.63;99.10
10832;BME280;5469;48.574;8.768;2022-10-22T07:48:44;94922.34;;;13.78;99.62
10832;BME280;5469;48.574;8.768;2022-10-22T07:51:19;94931.16;;;13.60;100.00
10832;BME280;5469;48.574;8.768;2022-10-22T07:53:57;94933.22;;;13.63;100.00
10832;BME280;5469;48.574;8.768;2022-10-22T07:56:32;94925.38;;;13.52;100.00
10832;BME280;5469;48.574;8.768;2022-10-22T07:59:07;94927.31;;;13.66;100.00
10832;BME280;5469;48.574;8.768;2022-10-22T08:01:43;94934.38;;;13.75;100.00
10832;BME280;5469;48.574;8.768;2022-10-22T08:04:19;94938.09;;;13.93;100.00
10832;BME280;5469;48.574;8.768;2022-10-22T08:06:54;94939.16;;;14.11;100.00
10832;BME280;5469;48.574;8.768;2022-10-22T08:09:29;94945.78;;;14.14;100.00
10832;BME280;5469;48.574;8.768;2022-10-22T08:12:05;94947.31;;;14.01;100.00
10832;BME280;5469;48.574;8.768;2022-10-22T08:14:40;94951.03;;;14.19;100.00
10832;BME280;5469;48.574;8.768;2022-10-22T08:17:16;94948.53;;;14.09;100.00
10832;BME280;5469;48.574;8.768;2022-10-22T08:19:51;94946.19;;;14.21;100.00
10832;BME280;5469;48.574;8.768;2022-10-22T08:22:27;94945.41;;;14.34;100.00
10832;BME280;5469;48.574;8.768;2022-10-22T08:25:02;94944.44;;;14.30;99.07
10832;BME280;5469;48.574;8.768;2022-10-22T08:27:38;94946.25;;;14.49;98.41
10832;BME280;5469;48.574;8.768;2022-10-22T08:30:14;94947.44;;;14.42;99.73
10832;BME280;5469;48.574;8.768;2022-10-22T08:32:51;94941.47;;;14.64;97.96
10832;BME280;5469;48.574;8.768;2022-10-22T08:35:26;94950.16;;;14.70;97.86
10832;BME280;5469;48.574;8.768;2022-10-22T08:38:01;94948.09;;;14.67;97.78
10832;BME280;5469;48.574;8.768;2022-10-22T08:40:38;94948.31;;;14.84;96.40
10832;BME280;5469;48.574;8.768;2022-10-22T08:43:32;94959.38;;;14.92;95.60
10832;BME280;5469;48.574;8.768;2022-10-22T08:46:21;94957.59;;;15.01;96.03
10832;BME280;5469;48.574;8.768;2022-10-22T08:49:04;94957.59;;;15.28;94.83
10832;BME280;5469;48.574;8.768;2022-10-22T08:51:42;94958.94;;;15.54;93.38
10832;BME280;5469;48.574;8.768;2022-10-22T08:54:22;94964.31;;;15.40;92.68
10832;BME280;5469;48.574;8.768;2022-10-22T08:57:08;94961.50;;;15.72;92.01
10832;BME280;5469;48.574;8.768;2022-10-22T08:59:52;94963.22;;;15.91;92.06
10832;BME280;5469;48.574;8.768;2022-10-22T09:02:39;94963.72;;;16.15;92.60
10832;BME280;5469;48.574;8.768;2022-10-22T09:05:32;94963.47;;;15.81;92.59
10832;BME280;5469;48.574;8.768;2022-10-22T09:08:11;94968.91;;;16.12;91.86
10832;BME280;5469;48.574;8.768;2022-10-22T09:10:50;94978.81;;;16.11;91.41
10832;BME280;5469;48.574;8.768;2022-10-22T09:13:25;94971.59;;;16.66;93.58
10832;BME280;5469;48.574;8.768;2022-10-22T09:16:13;94979.31;;;16.67;94.72
10832;BME280;5469;48.574;8.768;2022-10-22T09:18:56;94980.94;;;17.57;100.00
10832;BME280;5469;48.574;8.768;2022-10-22T09:21:42;94986.94;;;18.84;89.30
10832;BME280;5469;48.574;8.768;2022-10-22T09:24:28;94992.56;;;19.00;74.04
10832;BME280;5469;48.574;8.768;2022-10-22T09:27:12;94991.75;;;20.39;78.79
10832;BME280;5469;48.574;8.768;2022-10-22T09:29:48;94989.41;;;19.66;72.17
10832;BME280;5469;48.574;8.768;2022-10-22T09:32:24;95001.56;;;19.04;75.79
10832;BME280;5469;48.574;8.768;2022-10-22T09:34:59;94994.31;;;18.96;78.13
10832;BME280;5469;48.574;8.768;2022-10-22T09:37:36;95000.53;;;18.62;75.51
10832;BME280;5469;48.574;8.768;2022-10-22T09:40:21;94997.41;;;19.54;73.81
10832;BME280;5469;48.574;8.768;2022-10-22T09:42:56;94995.88;;;19.95;75.03
10832;BME280;5469;48.574;8.768;2022-10-22T09:45:33;94995.88;;;19.95;75.03
10832;BME280;5469;48.574;8.768;2022-10-22T09:48:15;95005.19;;;22.29;69.31
10832;BME280;5469;48.574;8.768;2022-10-22T09:50:57;95013.72;;;22.31;64.92
10832;BME280;5469;48.574;8.768;2022-10-22T09:53:40;95019.19;;;22.75;70.35
10832;BME280;5469;48.574;8.768;2022-10-22T09:56:20;95008.41;;;22.90;69.38
10832;BME280;5469;48.574;8.768;2022-10-22T09:58:59;95014.41;;;22.28;65.86
10832;BME280;5469;48.574;8.768;2022-10-22T10:01:36;95013.13;;;25.02;55.74
10832;BME280;5469;48.574;8.768;2022-10-22T10:04:15;95009.09;;;23.79;61.88
10832;BME280;5469;48.574;8.768;2022-10-22T10:06:54;95001.91;;;24.41;59.19
10832;BME280;5469;48.574;8.768;2022-10-22T10:09:32;64575.81;;;-144.83;100.00
10832;BME280;5469;48.574;8.768;2022-10-22T10:12:20;64575.81;;;-144.83;100.00
10832;BME280;5469;48.574;8.768;2022-10-22T10:15:02;95013.91;;;25.45;55.93
10832;BME280;5469;48.574;8.768;2022-10-22T10:17:45;95025.50;;;22.95;59.40
10832;BME280;5469;48.574;8.768;2022-10-22T10:20:27;95026.41;;;24.29;60.37
10832;BME280;5469;48.574;8.768;2022-10-22T10:23:11;95034.28;;;23.67;63.41
10832;BME280;5469;48.574;8.768;2022-10-22T10:25:54;95022.97;;;24.13;57.83
10832;BME280;5469;48.574;8.768;2022-10-22T10:28:47;95030.88;;;24.57;51.75
10832;BME280;5469;48.574;8.768;2022-10-22T10:31:32;95029.69;;;24.19;53.88
10832;BME280;5469;48.574;8.768;2022-10-22T10:34:16;95040.03;;;23.97;50.55
10832;BME280;5469;48.574;8.768;2022-10-22T10:37:01;95036.69;;;24.39;51.37
10832;BME280;5469;48.574;8.768;2022-10-22T10:39:43;95034.97;;;25.09;51.44
10832;BME280;5469;48.574;8.768;2022-10-22T10:42:29;95031.28;;;26.17;50.13
10832;BME280;5469;48.574;8.768;2022-10-22T10:45:15;95033.00;;;26.92;49.54
10832;BME280;5469;48.574;8.768;2022-10-22T10:48:00;95030.56;;;28.10;46.65
10832;BME280;5469;48.574;8.768;2022-10-22T10:50:49;95035.16;;;28.68;45.30
10832;BME280;5469;48.574;8.768;2022-10-22T10:53:33;95041.91;;;27.23;46.85
10832;BME280;5469;48.574;8.768;2022-10-22T10:56:22;95036.53;;;25.10;46.70
10832;BME280;5469;48.574;8.768;2022-10-22T10:59:09;95038.63;;;27.07;44.34
10832;BME280;5469;48.574;8.768;2022-10-22T11:01:58;95035.25;;;26.83;44.91
10832;BME280;5469;48.574;8.768;2022-10-22T11:05:06;95042.09;;;24.39;45.34
10832;BME280;5469;48.574;8.768;2022-10-22T11:07:49;95046.94;;;22.87;48.01
10832;BME280;5469;48.574;8.768;2022-10-22T11:10:30;95043.81;;;23.93;48.66
10832;BME280;5469;48.574;8.768;2022-10-22T11:13:11;95033.69;;;26.22;46.78
10832;BME280;5469;48.574;8.768;2022-10-22T11:15:55;95033.75;;;26.89;44.88
10832;BME280;5469;48.574;8.768;2022-10-22T11:18:36;95037.72;;;27.77;41.73
10832;BME280;5469;48.574;8.768;2022-10-22T11:21:20;95039.03;;;28.60;42.01
10832;BME280;5469;48.574;8.768;2022-10-22T11:24:01;95037.16;;;28.02;36.56
10832;BME280;5469;48.574;8.768;2022-10-22T11:26:45;95032.91;;;28.92;37.54
10832;BME280;5469;48.574;8.768;2022-10-22T11:29:24;95034.13;;;29.02;37.27
10832;BME280;5469;48.574;8.768;2022-10-22T11:32:04;95025.53;;;31.38;38.15
10832;BME280;5469;48.574;8.768;2022-10-22T11:34:45;95038.88;;;28.31;36.92
10832;BME280;5469;48.574;8.768;2022-10-22T11:37:23;95029.94;;;29.51;39.04
10832;BME280;5469;48.574;8.768;2022-10-22T11:40:02;95026.78;;;30.13;37.51
10832;BME280;5469;48.574;8.768;2022-10-22T11:42:39;95025.88;;;30.63;35.00
10832;BME280;5469;48.574;8.768;2022-10-22T11:45:29;95032.25;;;30.38;37.70
10832;BME280;5469;48.574;8.768;2022-10-22T11:48:18;95029.94;;;29.40;35.95
10832;BME280;5469;48.574;8.768;2022-10-22T11:51:02;95022.63;;;30.97;32.49
10832;BME280;5469;48.574;8.768;2022-10-22T11:53:39;95020.34;;;28.62;35.03
10832;BME280;5469;48.574;8.768;2022-10-22T11:56:25;95018.91;;;30.51;36.66
10832;BME280;5469;48.574;8.768;2022-10-22T11:59:01;95025.38;;;32.50;30.73
10832;BME280;5469;48.574;8.768;2022-10-22T12:01:44;95028.34;;;32.62;33.63
10832;BME280;5469;48.574;8.768;2022-10-22T12:04:32;95025.06;;;32.75;34.67
10832;BME280;5469;48.574;8.768;2022-10-22T12:07:31;95020.91;;;32.94;30.20
10832;BME280;5469;48.574;8.768;2022-10-22T12:10:17;95019.09;;;32.49;31.92
10832;BME280;5469;48.574;8.768;2022-10-22T12:12:57;95023.56;;;31.94;31.70
10832;BME280;5469;48.574;8.768;2022-10-22T12:15:32;95007.72;;;33.90;30.86
10832;BME280;5469;48.574;8.768;2022-10-22T12:18:08;95009.53;;;32.64;33.25
10832;BME280;5469;48.574;8.768;2022-10-22T12:20:50;95019.09;;;33.68;31.03
10832;BME280;5469;48.574;8.768;2022-10-22T12:23:30;95017.53;;;30.99;30.59
10832;BME280;5469;48.574;8.768;2022-10-22T12:26:24;95017.03;;;32.19;31.82
10832;BME280;5469;48.574;8.768;2022-10-22T12:29:00;95011.38;;;33.05;30.26
10832;BME280;5469;48.574;8.768;2022-10-22T12:31:37;95007.88;;;34.26;28.92
10832;BME280;5469;48.574;8.768;2022-10-22T12:34:20;95012.09;;;33.64;30.22
10832;BME280;5469;48.574;8.768;2022-10-22T12:36:56;95012.78;;;32.56;28.33
10832;BME280;5469;48.574;8.768;2022-10-22T12:39:31;95013.53;;;32.56;31.60
10832;BME280;5469;48.574;8.768;2022-10-22T12:42:09;95014.81;;;32.79;30.96
10832;BME280;5469;48.574;8.768;2022-10-22T12:44:46;95015.19;;;33.12;30.52
10832;BME280;5469;48.574;8.768;2022-10-22T12:47:21;95006.00;;;34.00;29.04
10832;BME280;5469;48.574;8.768;2022-10-22T12:49:56;95006.13;;;32.53;27.60
10832;BME280;5469;48.574;8.768;2022-10-22T12:52:33;95001.03;;;32.52;29.38
10832;BME280;5469;48.574;8.768;2022-10-22T12:55:13;95007.59;;;32.92;28.49
10832;BME280;5469;48.574;8.768;2022-10-22T12:57:49;95003.66;;;32.62;30.08
10832;BME280;5469;48.574;8.768;2022-10-22T13:00:27;94998.34;;;34.74;28.80
10832;BME280;5469;48.574;8.768;2022-10-22T13:03:05;94992.38;;;35.32;28.59
10832;BME280;5469;48.574;8.768;2022-10-22T13:05:41;94992.72;;;33.94;27.14
10832;BME280;5469;48.574;8.768;2022-10-22T13:08:22;94991.47;;;34.43;28.20
10832;BME280;5469;48.574;8.768;2022-10-22T13:11:05;94995.97;;;33.12;27.55
10832;BME280;5469;48.574;8.768;2022-10-22T13:13:45;94993.81;;;33.77;27.53
10832;BME280;5469;48.574;8.768;2022-10-22T13:16:23;94992.75;;;33.44;27.10
10832;BME280;5469;48.574;8.768;2022-10-22T13:19:03;94997.50;;;33.90;29.03
10832;BME280;5469;48.574;8.768;2022-10-22T13:21:40;94997.19;;;33.11;28.98
10832;BME280;5469;48.574;8.768;2022-10-22T13:24:23;94991.84;;;35.01;27.97
10832;BME280;5469;48.574;8.768;2022-10-22T13:27:01;94994.06;;;34.10;27.22
10832;BME280;5469;48.574;8.768;2022-10-22T13:29:42;94989.84;;;34.65;29.75
10832;BME280;5469;48.574;8.768;2022-10-22T13:32:29;94986.69;;;34.67;27.75
10832;BME280;5469;48.574;8.768;2022-10-22T13:35:05;94993.66;;;35.28;29.70
10832;BME280;5469;48.574;8.768;2022-10-22T13:37:41;94986.38;;;33.98;28.06
10832;BME280;5469;48.574;8.768;2022-10-22T13:40:17;94985.53;;;33.54;29.65
10832;BME280;5469;48.574;8.768;2022-10-22T13:42:52;94994.78;;;33.13;27.12
10832;BME280;5469;48.574;8.768;2022-10-22T13:45:28;94985.91;;;33.56;29.94
10832;BME280;5469;48.574;8.768;2022-10-22T13:48:03;94988.66;;;33.56;27.39
10832;BME280;5469;48.574;8.768;2022-10-22T13:50:39;94992.69;;;32.25;29.90
10832;BME280;5469;48.574;8.768;2022-10-22T13:53:18;94986.19;;;32.49;28.02
10832;BME280;5469;48.574;8.768;2022-10-22T13:55:56;94987.66;;;33.19;28.82
10832;BME280;5469;48.574;8.768;2022-10-22T13:58:31;94994.66;;;31.83;28.03
10832;BME280;5469;48.574;8.768;2022-10-22T14:01:11;94991.22;;;31.19;30.25
10832;BME280;5469;48.574;8.768;2022-10-22T14:03:52;94988.03;;;31.80;28.22
10832;BME280;5469;48.574;8.768;2022-10-22T14:06:31;94993.75;;;32.00;29.59
10832;BME280;5469;48.574;8.768;2022-10-22T14:09:09;94987.06;;;31.56;30.71